createdAt,value
2022-11-17T00:01:23.801Z,1.00
2022-11-17T00:03:51.083Z,1.00
2022-11-17T00:06:20.398Z,1.00
2022-11-17T00:08:48.851Z,1.00
2022-11-17T00:11:15.890Z,1.00
2022-11-17T00:14:01.300Z,1.00
2022-11-17T00:16:28.072Z,1.00
2022-11-17T00:19:13.547Z,1.00
2022-11-17T00:21:40.321Z,1.00
2022-11-17T00:24:07.251Z,1.00
2022-11-17T00:26:35.611Z,1.00
2022-11-17T00:29:05.901Z,1.00
2022-11-17T00:32:09.138Z,1.00
2022-11-17T00:34:35.947Z,1.00
2022-11-17T00:37:02.737Z,1.00
2022-11-17T00:39:29.459Z,1.00
2022-11-17T00:41:56.245Z,1.00
2022-11-17T00:44:22.999Z,1.00
2022-11-17T00:46:50.064Z,1.00
2022-11-17T00:49:16.907Z,1.00
2022-11-17T00:51:43.700Z,1.00
2022-11-17T00:54:12.459Z,1.00
2022-11-17T00:56:39.756Z,1.00
2022-11-17T00:59:06.541Z,1.00
2022-11-17T01:01:33.350Z,1.00
2022-11-17T01:04:04.272Z,1.00
2022-11-17T01:06:40.058Z,1.00
2022-11-17T01:09:21.556Z,1.00
2022-11-17T01:11:49.722Z,1.00
2022-11-17T01:14:19.317Z,1.00
2022-11-17T01:16:46.407Z,1.00
2022-11-17T01:19:14.590Z,99.90
2022-11-17T01:21:41.297Z,99.90
2022-11-17T01:24:08.323Z,99.90
2022-11-17T01:26:36.407Z,99.90
2022-11-17T01:29:05.183Z,99.90
2022-11-17T01:31:34.739Z,99.90
2022-11-17T01:34:01.639Z,99.90
2022-11-17T01:36:51.524Z,99.90
2022-11-17T01:39:18.780Z,99.90
2022-11-17T01:41:45.635Z,99.90
2022-11-17T01:44:49.743Z,99.90
2022-11-17T01:47:39.677Z,99.90
2022-11-17T01:50:22.896Z,99.90
2022-11-17T01:52:50.779Z,99.90
2022-11-17T01:55:19.430Z,92.10
2022-11-17T01:57:51.824Z,99.90
2022-11-17T02:00:18.697Z,99.90
2022-11-17T02:02:46.380Z,96.10
2022-11-17T02:05:19.219Z,93.90
2022-11-17T02:07:46.581Z,96.40
2022-11-17T02:10:13.348Z,98.70
2022-11-17T02:12:40.878Z,99.90
2022-11-17T02:15:08.202Z,99.90
2022-11-17T02:17:37.229Z,99.90
2022-11-17T02:20:15.589Z,99.90
2022-11-17T02:23:04.342Z,99.90
2022-11-17T02:25:50.112Z,99.90
2022-11-17T02:28:19.587Z,99.90
2022-11-17T02:30:53.032Z,99.90
2022-11-17T02:33:58.179Z,99.90
2022-11-17T02:36:32.614Z,99.90
2022-11-17T02:39:00.767Z,99.90
2022-11-17T02:41:31.409Z,99.90
2022-11-17T02:44:08.272Z,99.90
2022-11-17T02:46:46.141Z,99.90
2022-11-17T02:49:20.251Z,99.90
2022-11-17T02:51:51.033Z,99.90
2022-11-17T02:54:19.062Z,99.90
2022-11-17T02:56:45.830Z,99.90
2022-11-17T02:59:14.726Z,99.90
2022-11-17T03:02:09.392Z,99.90
2022-11-17T03:04:56.387Z,99.90
2022-11-17T03:07:32.760Z,99.90
2022-11-17T03:10:06.136Z,99.90
2022-11-17T03:12:41.941Z,99.90
2022-11-17T03:15:20.734Z,99.90
2022-11-17T03:18:15.288Z,99.90
2022-11-17T03:20:42.028Z,1.00
2022-11-17T03:23:19.305Z,1.00
2022-11-17T03:25:51.512Z,1.00
2022-11-17T03:28:19.487Z,1.00
2022-11-17T03:30:47.326Z,1.00
2022-11-17T03:33:17.729Z,1.00
2022-11-17T03:35:51.149Z,1.00
2022-11-17T03:38:19.729Z,1.00
2022-11-17T03:40:47.813Z,1.00
2022-11-17T03:43:16.626Z,1.00
2022-11-17T03:45:51.625Z,1.00
2022-11-17T03:48:36.456Z,1.00
2022-11-17T03:51:11.986Z,1.00
2022-11-17T03:53:38.977Z,1.00
2022-11-17T03:56:24.670Z,1.00
2022-11-17T03:59:00.124Z,1.00
2022-11-17T04:01:27.811Z,1.00
2022-11-17T04:03:54.629Z,1.00
2022-11-17T04:06:21.434Z,1.00
2022-11-17T04:08:48.273Z,1.00
2022-11-17T04:11:33.245Z,1.00
2022-11-17T04:14:18.710Z,1.00
2022-11-17T04:16:45.481Z,1.00
2022-11-17T04:19:12.271Z,1.00
2022-11-17T04:21:39.070Z,1.00
2022-11-17T04:24:06.329Z,1.00
2022-11-17T04:26:51.761Z,99.90
2022-11-17T04:29:18.896Z,99.90
2022-11-17T04:31:45.682Z,99.90
2022-11-17T04:34:12.595Z,99.90
2022-11-17T04:36:43.620Z,99.90
2022-11-17T04:39:11.785Z,55.50
2022-11-17T04:41:54.267Z,8.90
2022-11-17T04:44:25.846Z,1.00
2022-11-17T04:46:53.693Z,1.00
2022-11-17T04:49:21.438Z,1.00
2022-11-17T04:51:50.258Z,1.00
2022-11-17T04:54:19.099Z,1.00
2022-11-17T04:56:46.206Z,1.00
2022-11-17T04:59:12.959Z,1.00
2022-11-17T05:01:40.211Z,1.00
2022-11-17T05:04:09.482Z,1.00
2022-11-17T05:06:44.250Z,1.00
2022-11-17T05:09:16.344Z,1.00
2022-11-17T05:12:02.305Z,1.00
2022-11-17T05:14:30.126Z,1.00
2022-11-17T05:17:10.851Z,1.00
2022-11-17T05:19:40.169Z,1.00
2022-11-17T05:22:27.575Z,1.00
2022-11-17T05:24:54.914Z,1.00
2022-11-17T05:27:22.828Z,1.00
2022-11-17T05:29:49.741Z,1.00
2022-11-17T05:32:16.903Z,1.00
2022-11-17T05:34:43.671Z,1.00
2022-11-17T05:37:10.450Z,1.00
2022-11-17T05:39:37.238Z,1.00
2022-11-17T05:42:04.218Z,1.00
2022-11-17T05:44:31.102Z,1.00
2022-11-17T05:46:57.952Z,1.00
2022-11-17T05:49:24.689Z,1.00
2022-11-17T05:51:53.177Z,1.00
2022-11-17T05:54:20.459Z,1.00
2022-11-17T05:56:58.952Z,1.00
2022-11-17T05:59:29.194Z,1.00
2022-11-17T06:02:11.397Z,1.00
2022-11-17T06:04:39.119Z,1.00
2022-11-17T06:07:06.200Z,1.00
2022-11-17T06:09:35.658Z,1.00
2022-11-17T06:12:05.915Z,1.00
2022-11-17T06:14:34.456Z,1.00
2022-11-17T06:17:26.782Z,1.00
2022-11-17T06:20:10.424Z,1.00
2022-11-17T06:22:37.242Z,1.00
2022-11-17T06:25:05.351Z,1.00
2022-11-17T06:27:33.152Z,1.00
2022-11-17T06:30:04.496Z,1.00
2022-11-17T06:32:33.076Z,1.00
2022-11-17T06:35:00.133Z,1.00
2022-11-17T06:37:27.197Z,1.00
2022-11-17T06:39:54.031Z,1.00
2022-11-17T06:42:40.711Z,1.00
2022-11-17T06:45:08.191Z,1.00
2022-11-17T06:47:34.926Z,1.00
2022-11-17T06:50:01.967Z,1.00
2022-11-17T06:52:28.762Z,1.00
2022-11-17T06:54:56.418Z,1.00
2022-11-17T06:57:23.204Z,1.00
2022-11-17T06:59:52.608Z,1.00
2022-11-17T07:02:19.569Z,1.00
2022-11-17T07:04:46.404Z,1.00
2022-11-17T07:07:13.855Z,1.00
2022-11-17T07:09:40.713Z,1.00
2022-11-17T07:12:07.578Z,1.00
2022-11-17T07:14:34.432Z,1.00
2022-11-17T07:17:01.299Z,1.00
2022-11-17T07:19:28.130Z,1.00
2022-11-17T07:21:55.005Z,1.00
2022-11-17T07:24:21.873Z,1.00
2022-11-17T07:26:48.750Z,1.00
2022-11-17T07:29:15.553Z,1.00
2022-11-17T07:31:43.320Z,1.00
2022-11-17T07:34:10.258Z,1.00
2022-11-17T07:36:37.059Z,1.00
2022-11-17T07:39:05.488Z,1.00
2022-11-17T07:41:32.292Z,1.00
2022-11-17T07:43:59.417Z,1.00
2022-11-17T07:46:26.182Z,1.00
2022-11-17T07:48:54.950Z,1.00
2022-11-17T07:51:21.783Z,1.00
2022-11-17T07:53:48.650Z,1.00
2022-11-17T07:56:15.541Z,1.00
2022-11-17T07:58:42.484Z,1.00
2022-11-17T08:01:12.621Z,1.00
2022-11-17T08:03:39.508Z,1.00
2022-11-17T08:06:07.667Z,1.00
2022-11-17T08:08:34.979Z,1.00
2022-11-17T08:11:03.661Z,1.00
2022-11-17T08:13:30.901Z,1.00
2022-11-17T08:15:59.149Z,1.00
2022-11-17T08:18:26.571Z,1.00
2022-11-17T08:21:01.124Z,1.00
2022-11-17T08:23:28.007Z,1.00
2022-11-17T08:25:54.869Z,1.00
2022-11-17T08:28:22.607Z,1.00
2022-11-17T08:30:50.267Z,1.00
2022-11-17T08:33:17.213Z,1.00
2022-11-17T08:35:44.133Z,1.00
2022-11-17T08:38:15.534Z,1.00
2022-11-17T08:40:42.717Z,1.00
2022-11-17T08:43:09.733Z,99.90
2022-11-17T08:45:36.561Z,99.90
2022-11-17T08:48:04.411Z,99.90
2022-11-17T08:50:31.312Z,99.90
2022-11-17T08:52:58.212Z,99.90
2022-11-17T08:55:26.268Z,99.90
2022-11-17T08:57:53.384Z,99.90
2022-11-17T09:00:21.903Z,99.90
2022-11-17T09:02:48.727Z,99.90
2022-11-17T09:05:15.650Z,99.90
2022-11-17T09:07:42.506Z,21.20
2022-11-17T09:10:11.148Z,15.50
2022-11-17T09:12:38.234Z,39.80
2022-11-17T09:15:05.784Z,99.90
2022-11-17T09:17:33.012Z,99.90
2022-11-17T09:19:59.921Z,99.90
2022-11-17T09:22:27.113Z,85.40
2022-11-17T09:24:53.883Z,16.00
2022-11-17T09:27:20.702Z,19.70
2022-11-17T09:29:48.108Z,61.00
2022-11-17T09:32:16.852Z,91.30
2022-11-17T09:34:45.584Z,62.90
2022-11-17T09:37:12.420Z,34.50
2022-11-17T09:39:39.161Z,18.00
2022-11-17T09:42:06.096Z,99.90
2022-11-17T09:44:39.707Z,99.90
2022-11-17T09:47:29.810Z,99.90
2022-11-17T09:50:16.443Z,28.00
2022-11-17T09:53:00.971Z,99.90
2022-11-17T09:55:39.118Z,99.90
2022-11-17T09:58:18.084Z,99.90
2022-11-17T10:00:48.860Z,99.90
2022-11-17T10:03:20.950Z,1.00
2022-11-17T10:05:48.276Z,1.00
2022-11-17T10:08:18.870Z,99.90
2022-11-17T10:10:49.417Z,99.90
2022-11-17T10:13:25.113Z,99.90
2022-11-17T10:15:56.074Z,99.90
2022-11-17T10:18:23.149Z,1.00
2022-11-17T10:20:51.373Z,99.90
2022-11-17T10:23:20.005Z,99.90
2022-11-17T10:25:48.868Z,13.20
2022-11-17T10:28:27.659Z,1.00
2022-11-17T10:30:56.726Z,1.00
2022-11-17T10:33:34.414Z,1.00
2022-11-17T10:36:01.937Z,1.00
2022-11-17T10:38:29.792Z,1.00
2022-11-17T10:40:58.399Z,1.00
2022-11-17T10:43:27.601Z,1.00
2022-11-17T10:46:02.288Z,1.00
2022-11-17T10:48:37.203Z,99.90
2022-11-17T10:51:24.915Z,1.00
2022-11-17T10:54:04.130Z,99.90
2022-11-17T10:56:33.396Z,99.90
2022-11-17T10:59:09.259Z,99.90
2022-11-17T11:01:41.923Z,99.90
2022-11-17T11:04:27.571Z,99.90
2022-11-17T11:07:09.838Z,99.90
2022-11-17T11:09:44.868Z,99.90
2022-11-17T11:12:16.178Z,99.90
2022-11-17T11:14:49.032Z,99.90
2022-11-17T11:17:17.205Z,99.90
2022-11-17T11:19:53.111Z,99.90
2022-11-17T11:22:23.446Z,99.90
2022-11-17T11:25:24.568Z,99.90
2022-11-17T11:28:00.572Z,99.90
2022-11-17T11:30:27.673Z,99.90
2022-11-17T11:33:26.835Z,1.00
2022-11-17T11:36:24.856Z,99.90
2022-11-17T11:39:12.405Z,1.00
2022-11-17T11:42:00.100Z,1.00
2022-11-17T11:44:55.177Z,1.00
2022-11-17T11:47:21.940Z,1.00
2022-11-17T11:50:27.698Z,99.90
2022-11-17T11:52:59.833Z,99.90
2022-11-17T11:55:31.047Z,99.90
2022-11-17T11:58:06.243Z,99.90
2022-11-17T12:00:33.922Z,99.90
2022-11-17T12:03:20.587Z,7.40
2022-11-17T12:06:28.072Z,27.20
2022-11-17T12:09:13.497Z,71.20
2022-11-17T12:11:59.856Z,52.20
2022-11-17T12:14:28.729Z,99.90
2022-11-17T12:17:23.565Z,1.00
2022-11-17T12:19:54.140Z,99.90
2022-11-17T12:22:47.042Z,1.00
2022-11-17T12:25:17.507Z,1.00
2022-11-17T12:27:47.096Z,99.90
2022-11-17T12:30:32.695Z,99.90
2022-11-17T12:33:04.941Z,99.90
2022-11-17T12:35:34.781Z,1.00
2022-11-17T12:38:16.925Z,99.90
2022-11-17T12:40:53.999Z,99.90
2022-11-17T12:43:20.796Z,99.90
2022-11-17T12:45:53.435Z,99.90
2022-11-17T12:48:37.486Z,59.60
2022-11-17T12:51:16.984Z,1.00
2022-11-17T12:54:22.595Z,1.00
2022-11-17T12:57:11.263Z,1.00
2022-11-17T12:59:44.327Z,1.00
2022-11-17T13:02:31.562Z,41.50
2022-11-17T13:05:16.009Z,1.00
2022-11-17T13:07:42.792Z,1.00
2022-11-17T13:10:31.838Z,41.00
2022-11-17T13:13:23.802Z,99.90
2022-11-17T13:15:56.679Z,1.00
2022-11-17T13:18:23.438Z,1.00
2022-11-17T13:20:50.242Z,99.90
2022-11-17T13:23:20.327Z,1.00
2022-11-17T13:25:47.091Z,1.00
2022-11-17T13:28:28.164Z,1.00
2022-11-17T13:30:55.096Z,1.00
2022-11-17T13:33:23.651Z,1.00
2022-11-17T13:36:05.170Z,1.00
2022-11-17T13:38:33.101Z,1.00
2022-11-17T13:41:00.165Z,1.00
2022-11-17T13:43:29.413Z,1.00
2022-11-17T13:45:56.415Z,1.00
2022-11-17T13:48:50.427Z,1.00
2022-11-17T13:51:20.430Z,1.00
2022-11-17T13:53:50.890Z,99.90
2022-11-17T13:56:26.434Z,1.00
2022-11-17T13:58:53.942Z,1.00
2022-11-17T14:01:26.578Z,1.00
2022-11-17T14:03:53.449Z,99.90
2022-11-17T14:06:20.239Z,99.90
2022-11-17T14:09:02.954Z,1.00
2022-11-17T14:11:29.933Z,99.90
2022-11-17T14:14:01.391Z,1.00
2022-11-17T14:16:40.601Z,99.90
2022-11-17T14:19:16.788Z,1.00
2022-11-17T14:22:09.268Z,99.90
2022-11-17T14:24:36.779Z,99.90
2022-11-17T14:27:15.433Z,99.90
2022-11-17T14:29:42.233Z,99.90
2022-11-17T14:32:09.080Z,4.50
2022-11-17T14:34:35.841Z,82.40
2022-11-17T14:37:04.653Z,1.00
2022-11-17T14:39:34.138Z,20.70
2022-11-17T14:42:00.899Z,1.00
2022-11-17T14:44:28.077Z,1.00
2022-11-17T14:46:56.039Z,1.00
2022-11-17T14:49:22.832Z,99.90
2022-11-17T14:51:49.986Z,1.00
2022-11-17T14:54:16.779Z,26.50
2022-11-17T14:56:43.841Z,1.00
2022-11-17T14:59:11.503Z,1.00
2022-11-17T15:01:41.189Z,1.00
2022-11-17T15:04:34.396Z,1.00
2022-11-17T15:06:55.203Z,1.00
2022-11-17T15:09:22.022Z,17.60
2022-11-17T15:11:49.103Z,1.00
2022-11-17T15:14:16.238Z,38.20
2022-11-17T15:16:43.224Z,1.00
2022-11-17T15:19:10.114Z,1.00
2022-11-17T15:21:37.028Z,1.00
2022-11-17T15:24:05.066Z,1.00
2022-11-17T15:26:32.410Z,1.00
2022-11-17T15:28:59.278Z,1.00
2022-11-17T15:31:26.395Z,1.00
2022-11-17T15:33:53.506Z,1.00
2022-11-17T15:36:23.132Z,1.00
2022-11-17T15:38:50.235Z,1.00
2022-11-17T15:41:17.094Z,1.00
2022-11-17T15:43:44.873Z,13.80
2022-11-17T15:46:13.532Z,1.00
2022-11-17T15:48:43.224Z,1.00
2022-11-17T15:51:17.710Z,1.00
2022-11-17T15:53:46.623Z,1.60
2022-11-17T15:56:19.011Z,1.00
2022-11-17T15:58:46.876Z,6.30
2022-11-17T16:01:17.756Z,1.00
2022-11-17T16:03:45.390Z,1.00
2022-11-17T16:06:12.685Z,93.50
2022-11-17T16:08:39.815Z,90.20
2022-11-17T16:11:07.064Z,77.00
2022-11-17T16:13:33.877Z,99.90
2022-11-17T16:16:01.021Z,54.90
2022-11-17T16:18:28.560Z,1.00
2022-11-17T16:20:58.967Z,99.90
2022-11-17T16:23:29.853Z,99.90
2022-11-17T16:25:56.643Z,99.90
2022-11-17T16:28:23.786Z,99.90
2022-11-17T16:30:50.533Z,52.80
2022-11-17T16:33:17.448Z,99.90
2022-11-17T16:35:45.943Z,99.90
2022-11-17T16:38:14.978Z,84.90
2022-11-17T16:40:41.847Z,99.90
2022-11-17T16:43:12.964Z,99.90
2022-11-17T16:45:47.301Z,99.90
2022-11-17T16:48:14.140Z,99.90
2022-11-17T16:50:42.231Z,99.90
2022-11-17T16:53:09.192Z,99.90
2022-11-17T16:55:37.390Z,99.90
2022-11-17T16:58:05.273Z,99.90
2022-11-17T17:00:32.453Z,99.90
2022-11-17T17:02:59.303Z,99.90
2022-11-17T17:05:29.383Z,99.90
2022-11-17T17:07:56.957Z,99.90
2022-11-17T17:10:24.483Z,99.90
2022-11-17T17:12:51.345Z,99.90
2022-11-17T17:15:18.432Z,99.90
2022-11-17T17:17:45.350Z,99.90
2022-11-17T17:20:12.362Z,99.90
2022-11-17T17:22:39.292Z,99.90
2022-11-17T17:25:06.922Z,99.90
2022-11-17T17:27:33.853Z,1.00
2022-11-17T17:30:00.703Z,1.00
2022-11-17T17:32:27.496Z,1.00
2022-11-17T17:34:54.350Z,1.00
2022-11-17T17:37:21.326Z,1.00
2022-11-17T17:39:48.380Z,1.00
2022-11-17T17:42:15.373Z,1.00
2022-11-17T17:44:42.137Z,1.00
2022-11-17T17:47:08.954Z,1.00
2022-11-17T17:49:35.867Z,1.00
2022-11-17T17:52:02.693Z,1.00
2022-11-17T17:54:29.521Z,1.00
2022-11-17T17:56:57.784Z,1.00
2022-11-17T17:59:24.617Z,1.00
2022-11-17T18:01:52.075Z,1.00
2022-11-17T18:04:18.984Z,1.00
2022-11-17T18:06:48.103Z,1.00
2022-11-17T18:09:19.131Z,1.00
2022-11-17T18:11:49.867Z,1.00
2022-11-17T18:14:21.133Z,1.00
2022-11-17T18:16:48.091Z,1.00
2022-11-17T18:19:16.128Z,1.00
2022-11-17T18:21:43.995Z,1.00
2022-11-17T18:24:12.438Z,1.00
2022-11-17T18:26:41.056Z,1.00
2022-11-17T18:29:16.521Z,1.00
2022-11-17T18:31:46.774Z,1.00
2022-11-17T18:34:24.097Z,1.00
2022-11-17T18:36:52.421Z,1.00
2022-11-17T18:39:21.419Z,1.00
2022-11-17T18:41:48.609Z,1.00
2022-11-17T18:44:22.660Z,1.00
2022-11-17T18:46:49.542Z,1.00
2022-11-17T18:49:16.874Z,1.00
2022-11-17T18:51:43.938Z,1.00
2022-11-17T18:54:13.357Z,1.00
2022-11-17T18:56:40.364Z,1.00
2022-11-17T18:59:12.973Z,1.00
2022-11-17T19:01:41.466Z,1.00
2022-11-17T19:04:08.682Z,1.00
2022-11-17T19:06:35.730Z,39.90
2022-11-17T19:09:02.630Z,75.40
2022-11-17T19:11:32.973Z,99.90
2022-11-17T19:14:04.516Z,99.90
2022-11-17T19:16:33.068Z,99.90
2022-11-17T19:19:00.134Z,99.90
2022-11-17T19:21:29.603Z,99.90
2022-11-17T19:24:01.479Z,99.90
2022-11-17T19:26:31.107Z,99.90
2022-11-17T19:29:03.201Z,99.90
2022-11-17T19:31:30.419Z,99.90
2022-11-17T19:33:57.992Z,99.90
2022-11-17T19:36:32.820Z,99.90
2022-11-17T19:39:01.101Z,99.90
2022-11-17T19:41:33.976Z,99.90
2022-11-17T19:44:04.122Z,99.90
2022-11-17T19:46:31.300Z,99.90
2022-11-17T19:48:58.698Z,99.90
2022-11-17T19:51:31.107Z,99.90
2022-11-17T19:54:01.907Z,99.90
2022-11-17T19:56:30.608Z,99.90
2022-11-17T19:58:58.124Z,99.90
2022-11-17T20:01:26.867Z,99.90
2022-11-17T20:03:54.166Z,99.90
2022-11-17T20:06:23.270Z,99.90
2022-11-17T20:08:50.134Z,99.90
2022-11-17T20:11:19.530Z,99.90
2022-11-17T20:13:46.639Z,99.90
2022-11-17T20:16:15.753Z,99.90
2022-11-17T20:18:43.595Z,99.90
2022-11-17T20:21:11.492Z,99.90
2022-11-17T20:23:39.118Z,1.00
2022-11-17T20:26:08.373Z,1.00
2022-11-17T20:28:36.391Z,1.00
2022-11-17T20:31:24.453Z,1.00
2022-11-17T20:33:52.188Z,1.00
2022-11-17T20:36:20.671Z,1.00
2022-11-17T20:38:52.331Z,1.00
2022-11-17T20:41:21.045Z,1.00
2022-11-17T20:43:52.071Z,1.00
2022-11-17T20:46:19.646Z,1.00
2022-11-17T20:48:46.516Z,1.00
2022-11-17T20:51:16.115Z,1.00
2022-11-17T20:53:43.465Z,1.00
2022-11-17T20:56:12.011Z,1.00
2022-11-17T20:58:39.261Z,4.70
2022-11-17T21:01:16.771Z,1.00
2022-11-17T21:03:44.103Z,1.00
2022-11-17T21:06:12.892Z,54.30
2022-11-17T21:08:40.778Z,8.20
2022-11-17T21:11:33.084Z,1.00
2022-11-17T21:14:00.200Z,6.30
2022-11-17T21:16:27.002Z,39.20
2022-11-17T21:18:54.107Z,66.50
2022-11-17T21:21:20.966Z,58.30
2022-11-17T21:23:47.899Z,99.90
2022-11-17T21:26:19.186Z,99.90
2022-11-17T21:28:46.874Z,99.90
2022-11-17T21:31:19.147Z,99.90
2022-11-17T21:33:46.395Z,99.90
2022-11-17T21:36:17.623Z,99.90
2022-11-17T21:38:45.563Z,99.90
2022-11-17T21:41:17.476Z,99.90
2022-11-17T21:43:45.957Z,99.90
2022-11-17T21:46:17.944Z,99.90
2022-11-17T21:48:45.269Z,99.90
2022-11-17T21:51:29.387Z,99.90
2022-11-17T21:53:57.821Z,99.90
2022-11-17T21:56:26.938Z,99.90
2022-11-17T21:59:01.541Z,1.00
2022-11-17T22:01:29.483Z,1.00
2022-11-17T22:03:56.669Z,1.00
2022-11-17T22:06:24.889Z,1.00
2022-11-17T22:08:52.903Z,1.00
2022-11-17T22:11:38.003Z,1.00
2022-11-17T22:14:13.497Z,1.00
2022-11-17T22:16:42.681Z,1.00
2022-11-17T22:19:09.661Z,1.00
2022-11-17T22:21:37.654Z,1.00
2022-11-17T22:24:05.643Z,1.00
2022-11-17T22:26:32.763Z,1.00
2022-11-17T22:28:59.733Z,1.00
2022-11-17T22:31:27.168Z,1.00
2022-11-17T22:33:53.983Z,1.00
2022-11-17T22:36:20.934Z,1.00
2022-11-17T22:38:51.330Z,1.00
2022-11-17T22:41:22.439Z,1.00
2022-11-17T22:43:58.917Z,78.10
2022-11-17T22:46:27.582Z,51.40
2022-11-17T22:48:54.388Z,1.00
2022-11-17T22:51:41.486Z,97.40
2022-11-17T22:54:08.740Z,55.30
2022-11-17T22:56:35.839Z,99.90
2022-11-17T22:59:02.697Z,99.90
2022-11-17T23:01:29.597Z,99.90
2022-11-17T23:03:56.877Z,99.90
2022-11-17T23:06:24.400Z,99.90
2022-11-17T23:08:51.441Z,99.90
2022-11-17T23:14:07.542Z,99.90
2022-11-17T23:16:34.524Z,99.90
2022-11-17T23:19:01.390Z,99.90
2022-11-17T23:21:28.261Z,99.90
2022-11-17T23:23:55.239Z,99.90
2022-11-17T23:26:22.534Z,99.90
2022-11-17T23:28:49.592Z,1.00
2022-11-17T23:31:17.263Z,1.00
2022-11-17T23:33:46.224Z,99.90
2022-11-17T23:36:21.029Z,1.00
2022-11-17T23:38:48.873Z,1.00
2022-11-17T23:41:17.350Z,99.90
2022-11-17T23:43:44.176Z,1.00
2022-11-17T23:46:13.934Z,99.90
2022-11-17T23:48:41.407Z,7.80
2022-11-17T23:51:10.644Z,1.00
2022-11-17T23:53:37.553Z,1.00
2022-11-17T23:56:05.439Z,1.00
2022-11-17T23:58:32.476Z,1.00
